sensor_id;sensor_type;location;lat;lon;timestamp;pressure;altitude;pressure_sealevel;temperature;humidity
15477;BME280;7840;42.702;23.296;2022-12-07T00:00:01;95047.09;;;6.02;100.00
15477;BME280;7840;42.702;23.296;2022-12-07T00:02:29;95047.69;;;6.05;100.00
15477;BME280;7840;42.702;23.296;2022-12-07T00:04:58;95045.81;;;6.12;100.00
15477;BME280;7840;42.702;23.296;2022-12-07T00:07:26;95044.34;;;5.97;100.00
15477;BME280;7840;42.702;23.296;2022-12-07T00:09:54;95049.59;;;5.97;100.00
15477;BME280;7840;42.702;23.296;2022-12-07T00:12:24;95050.03;;;5.94;100.00
15477;BME280;7840;42.702;23.296;2022-12-07T00:14:51;95045.34;;;5.96;100.00
15477;BME280;7840;42.702;23.296;2022-12-07T00:17:20;95035.50;;;5.92;100.00
15477;BME280;7840;42.702;23.296;2022-12-07T00:19:47;95043.78;;;5.89;100.00
15477;BME280;7840;42.702;23.296;2022-12-07T00:22:16;95043.72;;;5.95;100.00
15477;BME280;7840;42.702;23.296;2022-12-07T00:24:52;95045.16;;;5.98;100.00
15477;BME280;7840;42.702;23.296;2022-12-07T00:41:05;95050.84;;;5.70;100.00
15477;BME280;7840;42.702;23.296;2022-12-07T00:43:33;95053.31;;;5.83;100.00
15477;BME280;7840;42.702;23.296;2022-12-07T00:46:01;95048.34;;;6.00;100.00
15477;BME280;7840;42.702;23.296;2022-12-07T00:48:28;95046.16;;;5.72;100.00
15477;BME280;7840;42.702;23.296;2022-12-07T00:51:11;95028.84;;;5.64;100.00
15477;BME280;7840;42.702;23.296;2022-12-07T00:53:40;95040.78;;;5.85;100.00
15477;BME280;7840;42.702;23.296;2022-12-07T00:56:12;95038.25;;;5.97;100.00
15477;BME280;7840;42.702;23.296;2022-12-07T00:58:40;95031.88;;;5.86;100.00
15477;BME280;7840;42.702;23.296;2022-12-07T01:01:09;95033.66;;;5.92;100.00
15477;BME280;7840;42.702;23.296;2022-12-07T01:03:38;95038.06;;;5.98;100.00
15477;BME280;7840;42.702;23.296;2022-12-07T01:26:49;95010.66;;;5.44;100.00
15477;BME280;7840;42.702;23.296;2022-12-07T01:29:17;95012.41;;;5.51;100.00
15477;BME280;7840;42.702;23.296;2022-12-07T01:31:49;95009.19;;;5.48;100.00
15477;BME280;7840;42.702;23.296;2022-12-07T01:34:17;95010.44;;;5.46;100.00
15477;BME280;7840;42.702;23.296;2022-12-07T01:36:44;95002.31;;;5.29;100.00
15477;BME280;7840;42.702;23.296;2022-12-07T01:39:12;95006.94;;;5.27;100.00
15477;BME280;7840;42.702;23.296;2022-12-07T01:41:40;95011.03;;;5.23;100.00
15477;BME280;7840;42.702;23.296;2022-12-07T01:44:19;95003.91;;;5.30;100.00
15477;BME280;7840;42.702;23.296;2022-12-07T01:46:48;95007.50;;;5.36;100.00
15477;BME280;7840;42.702;23.296;2022-12-07T01:49:24;95008.13;;;5.31;100.00
15477;BME280;7840;42.702;23.296;2022-12-07T01:51:58;94990.78;;;5.30;100.00
15477;BME280;7840;42.702;23.296;2022-12-07T02:39:37;94978.56;;;5.61;100.00
15477;BME280;7840;42.702;23.296;2022-12-07T02:42:12;94985.28;;;5.57;100.00
15477;BME280;7840;42.702;23.296;2022-12-07T02:47:29;94970.75;;;5.54;100.00
15477;BME280;7840;42.702;23.296;2022-12-07T02:49:57;94971.13;;;5.58;100.00
15477;BME280;7840;42.702;23.296;2022-12-07T02:52:25;94980.09;;;5.50;100.00
15477;BME280;7840;42.702;23.296;2022-12-07T03:39:36;94955.03;;;4.48;100.00
15477;BME280;7840;42.702;23.296;2022-12-07T03:42:21;94945.81;;;4.38;100.00
15477;BME280;7840;42.702;23.296;2022-12-07T03:44:50;94939.78;;;4.31;100.00
15477;BME280;7840;42.702;23.296;2022-12-07T03:47:26;94943.88;;;4.27;100.00
15477;BME280;7840;42.702;23.296;2022-12-07T03:50:15;94948.34;;;4.20;100.00
15477;BME280;7840;42.702;23.296;2022-12-07T03:52:58;94948.34;;;4.20;100.00
15477;BME280;7840;42.702;23.296;2022-12-07T04:14:16;94929.16;;;4.83;100.00
15477;BME280;7840;42.702;23.296;2022-12-07T04:16:47;94923.34;;;4.81;100.00
15477;BME280;7840;42.702;23.296;2022-12-07T04:19:17;94928.78;;;4.79;100.00
15477;BME280;7840;42.702;23.296;2022-12-07T04:21:46;94938.19;;;4.62;100.00
15477;BME280;7840;42.702;23.296;2022-12-07T04:24:17;94937.63;;;4.60;100.00
15477;BME280;7840;42.702;23.296;2022-12-07T04:26:51;94932.47;;;4.72;100.00
15477;BME280;7840;42.702;23.296;2022-12-07T04:29:55;94942.25;;;4.58;100.00
15477;BME280;7840;42.702;23.296;2022-12-07T04:32:46;94941.66;;;4.24;100.00
15477;BME280;7840;42.702;23.296;2022-12-07T04:35:35;94940.16;;;4.42;100.00
15477;BME280;7840;42.702;23.296;2022-12-07T04:38:18;94927.22;;;4.47;100.00
15477;BME280;7840;42.702;23.296;2022-12-07T04:56:30;94929.84;;;4.08;100.00
15477;BME280;7840;42.702;23.296;2022-12-07T04:59:15;94946.03;;;3.99;100.00
15477;BME280;7840;42.702;23.296;2022-12-07T05:01:49;94942.19;;;4.01;100.00
15477;BME280;7840;42.702;23.296;2022-12-07T05:04:19;94944.59;;;4.03;100.00
15477;BME280;7840;42.702;23.296;2022-12-07T05:06:52;94933.53;;;3.94;100.00
15477;BME280;7840;42.702;23.296;2022-12-07T05:09:25;94935.50;;;4.05;100.00
15477;BME280;7840;42.702;23.296;2022-12-07T05:11:55;94935.06;;;4.15;100.00
15477;BME280;7840;42.702;23.296;2022-12-07T05:14:26;94936.44;;;4.18;100.00
15477;BME280;7840;42.702;23.296;2022-12-07T05:16:54;94929.38;;;4.18;100.00
15477;BME280;7840;42.702;23.296;2022-12-07T05:19:35;94928.47;;;4.37;100.00
15477;BME280;7840;42.702;23.296;2022-12-07T05:22:19;94935.66;;;4.49;100.00
15477;BME280;7840;42.702;23.296;2022-12-07T05:24:47;94939.13;;;4.43;100.00
15477;BME280;7840;42.702;23.296;2022-12-07T05:27:19;94944.19;;;4.37;100.00
15477;BME280;7840;42.702;23.296;2022-12-07T05:29:46;94940.56;;;4.38;100.00
15477;BME280;7840;42.702;23.296;2022-12-07T05:32:14;94935.53;;;4.37;100.00
15477;BME280;7840;42.702;23.296;2022-12-07T05:34:42;94929.66;;;4.42;100.00
15477;BME280;7840;42.702;23.296;2022-12-07T05:37:12;94937.31;;;4.43;100.00
15477;BME280;7840;42.702;23.296;2022-12-07T05:39:40;94944.91;;;4.51;100.00
15477;BME280;7840;42.702;23.296;2022-12-07T05:42:11;94942.19;;;4.39;100.00
15477;BME280;7840;42.702;23.296;2022-12-07T05:44:41;94931.81;;;4.20;100.00
15477;BME280;7840;42.702;23.296;2022-12-07T05:47:10;94932.44;;;4.15;100.00
15477;BME280;7840;42.702;23.296;2022-12-07T05:49:37;94931.00;;;4.19;100.00
15477;BME280;7840;42.702;23.296;2022-12-07T05:52:05;94925.94;;;4.18;100.00
15477;BME280;7840;42.702;23.296;2022-12-07T05:54:36;94924.13;;;4.18;100.00
15477;BME280;7840;42.702;23.296;2022-12-07T05:57:09;94919.72;;;4.19;100.00
15477;BME280;7840;42.702;23.296;2022-12-07T05:59:36;94915.06;;;4.21;100.00
15477;BME280;7840;42.702;23.296;2022-12-07T06:02:07;94918.75;;;4.45;100.00
15477;BME280;7840;42.702;23.296;2022-12-07T06:04:37;94923.50;;;4.61;100.00
15477;BME280;7840;42.702;23.296;2022-12-07T06:07:05;94926.59;;;4.76;100.00
15477;BME280;7840;42.702;23.296;2022-12-07T06:09:34;94916.41;;;4.86;100.00
15477;BME280;7840;42.702;23.296;2022-12-07T06:12:02;94928.09;;;4.90;100.00
15477;BME280;7840;42.702;23.296;2022-12-07T06:14:47;94931.91;;;4.94;100.00
15477;BME280;7840;42.702;23.296;2022-12-07T06:17:17;94935.13;;;4.65;100.00
15477;BME280;7840;42.702;23.296;2022-12-07T06:19:44;94941.59;;;4.69;100.00
15477;BME280;7840;42.702;23.296;2022-12-07T06:22:12;94938.03;;;4.57;100.00
15477;BME280;7840;42.702;23.296;2022-12-07T06:24:40;94931.19;;;4.56;100.00
15477;BME280;7840;42.702;23.296;2022-12-07T06:27:08;94943.59;;;4.74;100.00
15477;BME280;7840;42.702;23.296;2022-12-07T06:29:36;94942.97;;;4.72;100.00
15477;BME280;7840;42.702;23.296;2022-12-07T06:32:04;94938.34;;;4.74;100.00
15477;BME280;7840;42.702;23.296;2022-12-07T06:34:36;94950.66;;;4.66;100.00
15477;BME280;7840;42.702;23.296;2022-12-07T06:37:20;94950.38;;;4.50;100.00
15477;BME280;7840;42.702;23.296;2022-12-07T06:39:52;94950.63;;;4.42;100.00
15477;BME280;7840;42.702;23.296;2022-12-07T06:42:34;94955.44;;;4.45;100.00
15477;BME280;7840;42.702;23.296;2022-12-07T06:45:03;94957.78;;;4.59;100.00
15477;BME280;7840;42.702;23.296;2022-12-07T06:47:37;94958.44;;;4.55;100.00
15477;BME280;7840;42.702;23.296;2022-12-07T06:50:23;94957.41;;;4.56;100.00
15477;BME280;7840;42.702;23.296;2022-12-07T06:52:51;94952.41;;;4.79;100.00
15477;BME280;7840;42.702;23.296;2022-12-07T06:55:30;94955.50;;;4.70;100.00
15477;BME280;7840;42.702;23.296;2022-12-07T06:58:02;94957.81;;;4.53;100.00
15477;BME280;7840;42.702;23.296;2022-12-07T07:00:30;94955.19;;;4.53;100.00
15477;BME280;7840;42.702;23.296;2022-12-07T07:03:12;94958.84;;;4.52;100.00
15477;BME280;7840;42.702;23.296;2022-12-07T07:05:44;94950.81;;;4.47;100.00
15477;BME280;7840;42.702;23.296;2022-12-07T07:08:27;94953.19;;;4.55;100.00
15477;BME280;7840;42.702;23.296;2022-12-07T07:10:54;94953.19;;;4.55;100.00
15477;BME280;7840;42.702;23.296;2022-12-07T07:13:38;94962.13;;;4.72;100.00
15477;BME280;7840;42.702;23.296;2022-12-07T07:16:07;94952.69;;;4.64;100.00
15477;BME280;7840;42.702;23.296;2022-12-07T07:18:49;94963.84;;;4.60;100.00
15477;BME280;7840;42.702;23.296;2022-12-07T07:21:20;94956.38;;;4.57;100.00
15477;BME280;7840;42.702;23.296;2022-12-07T07:23:48;94955.38;;;4.58;100.00
15477;BME280;7840;42.702;23.296;2022-12-07T07:26:18;94962.56;;;4.69;100.00
15477;BME280;7840;42.702;23.296;2022-12-07T07:28:56;94965.69;;;4.84;100.00
15477;BME280;7840;42.702;23.296;2022-12-07T07:31:24;94959.59;;;4.90;100.00
15477;BME280;7840;42.702;23.296;2022-12-07T07:33:54;94959.84;;;5.07;100.00
15477;BME280;7840;42.702;23.296;2022-12-07T07:36:23;94964.13;;;5.27;100.00
15477;BME280;7840;42.702;23.296;2022-12-07T07:38:51;94974.31;;;5.16;100.00
15477;BME280;7840;42.702;23.296;2022-12-07T07:41:19;94974.38;;;5.10;100.00
15477;BME280;7840;42.702;23.296;2022-12-07T07:44:01;94968.69;;;5.13;100.00
15477;BME280;7840;42.702;23.296;2022-12-07T07:46:31;94967.09;;;5.12;100.00
15477;BME280;7840;42.702;23.296;2022-12-07T07:49:16;94966.81;;;5.20;100.00
15477;BME280;7840;42.702;23.296;2022-12-07T07:51:45;94976.78;;;5.11;100.00
15477;BME280;7840;42.702;23.296;2022-12-07T07:54:16;94966.69;;;5.15;100.00
15477;BME280;7840;42.702;23.296;2022-12-07T07:57:08;94969.34;;;5.08;100.00
15477;BME280;7840;42.702;23.296;2022-12-07T07:59:36;94970.13;;;5.34;100.00
15477;BME280;7840;42.702;23.296;2022-12-07T08:02:22;94971.97;;;5.52;100.00
15477;BME280;7840;42.702;23.296;2022-12-07T08:04:49;94961.91;;;5.48;100.00
15477;BME280;7840;42.702;23.296;2022-12-07T08:07:19;94972.72;;;5.59;100.00
15477;BME280;7840;42.702;23.296;2022-12-07T08:09:52;94973.44;;;5.47;100.00
15477;BME280;7840;42.702;23.296;2022-12-07T08:12:24;94967.53;;;5.52;100.00
15477;BME280;7840;42.702;23.296;2022-12-07T08:15:03;94974.75;;;5.75;100.00
15477;BME280;7840;42.702;23.296;2022-12-07T08:17:31;94972.41;;;5.92;100.00
15477;BME280;7840;42.702;23.296;2022-12-07T08:19:58;94972.59;;;6.09;100.00
15477;BME280;7840;42.702;23.296;2022-12-07T08:22:27;94973.63;;;6.26;100.00
15477;BME280;7840;42.702;23.296;2022-12-07T08:24:55;94966.47;;;5.96;100.00
15477;BME280;7840;42.702;23.296;2022-12-07T08:27:43;94969.56;;;6.12;100.00
15477;BME280;7840;42.702;23.296;2022-12-07T08:30:10;94974.34;;;6.33;100.00
15477;BME280;7840;42.702;23.296;2022-12-07T08:32:38;94981.25;;;5.97;100.00
15477;BME280;7840;42.702;23.296;2022-12-07T08:35:09;94982.09;;;6.10;100.00
15477;BME280;7840;42.702;23.296;2022-12-07T08:37:38;94979.06;;;6.43;100.00
15477;BME280;7840;42.702;23.296;2022-12-07T08:40:07;94982.69;;;6.72;100.00
15477;BME280;7840;42.702;23.296;2022-12-07T08:42:35;94975.75;;;6.77;100.00
15477;BME280;7840;42.702;23.296;2022-12-07T08:45:08;94973.19;;;6.71;100.00
15477;BME280;7840;42.702;23.296;2022-12-07T08:47:39;94970.69;;;7.18;100.00
15477;BME280;7840;42.702;23.296;2022-12-07T08:50:08;94965.06;;;7.37;100.00
15477;BME280;7840;42.702;23.296;2022-12-07T08:52:39;94965.41;;;7.64;100.00
15477;BME280;7840;42.702;23.296;2022-12-07T08:55:10;94967.00;;;7.77;100.00
15477;BME280;7840;42.702;23.296;2022-12-07T08:57:39;94962.19;;;7.86;100.00
15477;BME280;7840;42.702;23.296;2022-12-07T09:00:07;94958.56;;;7.28;100.00
15477;BME280;7840;42.702;23.296;2022-12-07T09:02:36;94964.16;;;7.44;100.00
15477;BME280;7840;42.702;23.296;2022-12-07T09:05:19;94954.88;;;7.76;100.00
15477;BME280;7840;42.702;23.296;2022-12-07T09:07:51;94945.19;;;7.93;100.00
15477;BME280;7840;42.702;23.296;2022-12-07T09:10:23;94954.44;;;8.08;100.00
15477;BME280;7840;42.702;23.296;2022-12-07T09:12:58;94945.38;;;8.15;100.00
15477;BME280;7840;42.702;23.296;2022-12-07T09:15:39;94947.66;;;8.23;100.00
15477;BME280;7840;42.702;23.296;2022-12-07T09:18:35;94948.63;;;8.34;100.00
15477;BME280;7840;42.702;23.296;2022-12-07T09:21:04;94950.78;;;8.49;100.00
15477;BME280;7840;42.702;23.296;2022-12-07T09:23:35;94951.94;;;8.53;100.00
15477;BME280;7840;42.702;23.296;2022-12-07T09:26:04;94948.91;;;8.61;100.00
15477;BME280;7840;42.702;23.296;2022-12-07T09:28:35;94951.00;;;8.76;100.00
15477;BME280;7840;42.702;23.296;2022-12-07T09:31:17;94946.25;;;8.61;100.00
15477;BME280;7840;42.702;23.296;2022-12-07T09:33:45;94945.88;;;8.69;100.00
15477;BME280;7840;42.702;23.296;2022-12-07T09:36:12;94938.50;;;8.71;100.00
15477;BME280;7840;42.702;23.296;2022-12-07T09:38:53;94932.28;;;8.77;100.00
15477;BME280;7840;42.702;23.296;2022-12-07T09:41:21;94928.78;;;8.89;100.00
15477;BME280;7840;42.702;23.296;2022-12-07T09:43:51;94919.16;;;8.83;100.00
15477;BME280;7840;42.702;23.296;2022-12-07T09:46:21;94923.88;;;8.97;100.00
15477;BME280;7840;42.702;23.296;2022-12-07T09:48:56;94914.63;;;8.95;100.00
15477;BME280;7840;42.702;23.296;2022-12-07T09:51:25;94915.97;;;9.14;100.00
15477;BME280;7840;42.702;23.296;2022-12-07T09:53:57;94921.09;;;9.04;100.00
15477;BME280;7840;42.702;23.296;2022-12-07T09:56:28;94926.97;;;9.06;100.00
15477;BME280;7840;42.702;23.296;2022-12-07T09:58:59;94916.84;;;9.03;100.00
15477;BME280;7840;42.702;23.296;2022-12-07T10:01:30;94919.50;;;9.03;100.00
15477;BME280;7840;42.702;23.296;2022-12-07T10:04:08;94911.16;;;9.11;100.00
15477;BME280;7840;42.702;23.296;2022-12-07T10:06:39;94911.34;;;9.21;100.00
15477;BME280;7840;42.702;23.296;2022-12-07T10:09:23;94905.28;;;9.43;100.00
15477;BME280;7840;42.702;23.296;2022-12-07T10:12:06;94905.25;;;9.59;100.00
15477;BME280;7840;42.702;23.296;2022-12-07T10:15:04;94895.69;;;9.75;100.00
15477;BME280;7840;42.702;23.296;2022-12-07T10:17:54;94892.53;;;10.00;100.00
15477;BME280;7840;42.702;23.296;2022-12-07T10:20:30;94886.31;;;10.33;100.00
15477;BME280;7840;42.702;23.296;2022-12-07T10:23:03;94877.53;;;10.55;100.00
15477;BME280;7840;42.702;23.296;2022-12-07T10:25:35;94877.94;;;10.41;100.00
15477;BME280;7840;42.702;23.296;2022-12-07T10:28:16;94869.03;;;10.53;100.00
15477;BME280;7840;42.702;23.296;2022-12-07T10:30:51;94863.34;;;10.66;100.00
15477;BME280;7840;42.702;23.296;2022-12-07T10:33:38;94858.84;;;10.66;100.00
15477;BME280;7840;42.702;23.296;2022-12-07T10:36:23;94861.97;;;10.63;99.61
15477;BME280;7840;42.702;23.296;2022-12-07T10:39:01;94856.81;;;10.47;100.00
15477;BME280;7840;42.702;23.296;2022-12-07T10:41:53;94858.41;;;10.48;100.00
15477;BME280;7840;42.702;23.296;2022-12-07T10:44:26;94859.44;;;10.47;100.00
15477;BME280;7840;42.702;23.296;2022-12-07T10:47:10;94856.06;;;10.51;100.00
15477;BME280;7840;42.702;23.296;2022-12-07T10:50:02;94850.56;;;10.58;100.00
15477;BME280;7840;42.702;23.296;2022-12-07T10:52:50;94849.56;;;10.64;100.00
15477;BME280;7840;42.702;23.296;2022-12-07T10:55:26;94843.16;;;10.60;100.00
15477;BME280;7840;42.702;23.296;2022-12-07T10:58:16;94829.19;;;10.37;100.00
15477;BME280;7840;42.702;23.296;2022-12-07T11:00:54;94841.66;;;10.42;100.00
15477;BME280;7840;42.702;23.296;2022-12-07T11:06:51;94825.03;;;10.47;100.00
15477;BME280;7840;42.702;23.296;2022-12-07T11:09:51;94821.88;;;10.50;100.00
15477;BME280;7840;42.702;23.296;2022-12-07T11:18:44;94805.44;;;11.79;90.84
15477;BME280;7840;42.702;23.296;2022-12-07T11:21:21;94803.16;;;12.14;88.99
15477;BME280;7840;42.702;23.296;2022-12-07T11:23:59;94799.47;;;12.35;87.11
15477;BME280;7840;42.702;23.296;2022-12-07T11:26:45;94795.78;;;12.46;85.53
15477;BME280;7840;42.702;23.296;2022-12-07T11:29:24;94799.97;;;12.07;86.55
15477;BME280;7840;42.702;23.296;2022-12-07T11:32:16;94787.25;;;12.34;85.79
15477;BME280;7840;42.702;23.296;2022-12-07T11:35:00;94778.25;;;12.55;84.22
15477;BME280;7840;42.702;23.296;2022-12-07T11:37:36;94775.09;;;12.64;83.07
15477;BME280;7840;42.702;23.296;2022-12-07T11:40:17;94777.44;;;12.55;82.09
15477;BME280;7840;42.702;23.296;2022-12-07T11:42:51;94783.03;;;12.74;81.06
15477;BME280;7840;42.702;23.296;2022-12-07T11:45:23;94787.25;;;12.90;80.52
15477;BME280;7840;42.702;23.296;2022-12-07T11:48:01;94788.31;;;13.20;79.03
15477;BME280;7840;42.702;23.296;2022-12-07T11:50:36;94785.63;;;13.45;77.20
15477;BME280;7840;42.702;23.296;2022-12-07T11:53:14;94777.66;;;13.30;76.07
15477;BME280;7840;42.702;23.296;2022-12-07T11:55:49;94779.81;;;13.18;76.56
15477;BME280;7840;42.702;23.296;2022-12-07T11:58:42;94772.03;;;13.41;76.02
15477;BME280;7840;42.702;23.296;2022-12-07T12:01:37;94762.72;;;13.44;75.47
15477;BME280;7840;42.702;23.296;2022-12-07T12:04:19;94764.22;;;13.71;74.76
15477;BME280;7840;42.702;23.296;2022-12-07T12:06:56;94757.19;;;13.95;72.98
15477;BME280;7840;42.702;23.296;2022-12-07T12:09:47;94758.19;;;14.04;72.19
15477;BME280;7840;42.702;23.296;2022-12-07T12:12:58;94750.97;;;13.60;73.02
15477;BME280;7840;42.702;23.296;2022-12-07T12:15:45;94754.28;;;13.27;75.85
15477;BME280;7840;42.702;23.296;2022-12-07T12:18:36;94744.44;;;13.22;75.88
15477;BME280;7840;42.702;23.296;2022-12-07T12:21:16;94749.94;;;13.46;75.61
15477;BME280;7840;42.702;23.296;2022-12-07T12:24:02;94736.66;;;13.41;75.33
15477;BME280;7840;42.702;23.296;2022-12-07T12:26:33;94743.00;;;13.55;74.16
15477;BME280;7840;42.702;23.296;2022-12-07T12:29:27;94742.69;;;13.62;74.21
15477;BME280;7840;42.702;23.296;2022-12-07T12:32:12;94737.59;;;13.65;73.92
15477;BME280;7840;42.702;23.296;2022-12-07T12:34:57;94728.22;;;13.78;73.80
15477;BME280;7840;42.702;23.296;2022-12-07T12:37:44;94713.13;;;13.68;73.05
15477;BME280;7840;42.702;23.296;2022-12-07T12:43:47;94701.00;;;14.31;71.33
15477;BME280;7840;42.702;23.296;2022-12-07T12:46:37;94705.53;;;14.64;69.35
15477;BME280;7840;42.702;23.296;2022-12-07T12:49:37;94703.09;;;14.97;67.05
15477;BME280;7840;42.702;23.296;2022-12-07T12:58:34;94705.59;;;15.12;65.15
15477;BME280;7840;42.702;23.296;2022-12-07T13:01:38;94712.53;;;15.13;65.17
15477;BME280;7840;42.702;23.296;2022-12-07T13:04:27;94714.00;;;15.24;64.89
15477;BME280;7840;42.702;23.296;2022-12-07T13:07:49;94717.94;;;15.51;64.10
15477;BME280;7840;42.702;23.296;2022-12-07T13:10:37;94719.78;;;15.55;63.19
15477;BME280;7840;42.702;23.296;2022-12-07T13:13:34;94711.81;;;15.74;62.89
15477;BME280;7840;42.702;23.296;2022-12-07T13:16:39;94722.88;;;15.86;62.00
15477;BME280;7840;42.702;23.296;2022-12-07T13:22:39;94712.84;;;15.78;61.88
15477;BME280;7840;42.702;23.296;2022-12-07T13:25:12;94705.97;;;15.91;61.92
15477;BME280;7840;42.702;23.296;2022-12-07T13:27:56;94712.69;;;16.26;61.10
15477;BME280;7840;42.702;23.296;2022-12-07T13:30:54;94707.13;;;16.74;59.08
15477;BME280;7840;42.702;23.296;2022-12-07T13:33:29;94705.31;;;17.02;58.02
15477;BME280;7840;42.702;23.296;2022-12-07T13:36:01;94705.41;;;17.11;57.32
15477;BME280;7840;42.702;23.296;2022-12-07T13:38:35;94700.94;;;16.92;57.82
15477;BME280;7840;42.702;23.296;2022-12-07T13:41:11;94700.47;;;17.04;57.60
15477;BME280;7840;42.702;23.296;2022-12-07T13:43:55;94704.22;;;17.03;57.16
15477;BME280;7840;42.702;23.296;2022-12-07T13:46:35;94699.50;;;16.81;57.90
15477;BME280;7840;42.702;23.296;2022-12-07T13:49:23;94695.91;;;16.39;59.39
15477;BME280;7840;42.702;23.296;2022-12-07T13:51:55;94695.72;;;16.36;60.38
15477;BME280;7840;42.702;23.296;2022-12-07T13:54:42;94692.97;;;16.41;60.28
15477;BME280;7840;42.702;23.296;2022-12-07T13:57:19;94695.75;;;16.50;59.86
15477;BME280;7840;42.702;23.296;2022-12-07T13:59:48;94702.00;;;16.59;59.08
15477;BME280;7840;42.702;23.296;2022-12-07T14:02:21;94697.84;;;16.20;60.13
15477;BME280;7840;42.702;23.296;2022-12-07T14:05:05;94702.22;;;15.73;62.17
15477;BME280;7840;42.702;23.296;2022-12-07T14:07:34;94687.53;;;15.52;63.25
15477;BME280;7840;42.702;23.296;2022-12-07T14:10:06;94690.09;;;15.14;65.31
15477;BME280;7840;42.702;23.296;2022-12-07T14:12:36;94688.91;;;14.77;66.80
15477;BME280;7840;42.702;23.296;2022-12-07T14:15:20;94697.59;;;14.59;68.43
15477;BME280;7840;42.702;23.296;2022-12-07T14:17:53;94695.06;;;14.39;69.52
15477;BME280;7840;42.702;23.296;2022-12-07T14:23:24;94703.38;;;13.93;72.53
15477;BME280;7840;42.702;23.296;2022-12-07T14:26:14;94710.19;;;13.65;74.00
15477;BME280;7840;42.702;23.296;2022-12-07T14:28:43;94704.75;;;13.41;75.26
15477;BME280;7840;42.702;23.296;2022-12-07T14:31:14;94709.06;;;13.27;77.04
15477;BME280;7840;42.702;23.296;2022-12-07T14:33:43;94707.22;;;13.02;78.44
15477;BME280;7840;42.702;23.296;2022-12-07T14:36:21;94702.75;;;12.82;80.24
15477;BME280;7840;42.702;23.296;2022-12-07T14:38:49;94708.66;;;12.38;83.60
15477;BME280;7840;42.702;23.296;2022-12-07T14:41:22;94710.53;;;12.22;85.09
15477;BME280;7840;42.702;23.296;2022-12-07T14:44:10;94711.31;;;12.02;88.17
15477;BME280;7840;42.702;23.296;2022-12-07T14:47:09;94707.75;;;11.66;91.53
15477;BME280;7840;42.702;23.296;2022-12-07T14:49:37;94703.75;;;11.54;92.60
15477;BME280;7840;42.702;23.296;2022-12-07T14:52:06;94707.97;;;11.39;94.27
15477;BME280;7840;42.702;23.296;2022-12-07T14:54:42;94706.59;;;11.37;95.41
15477;BME280;7840;42.702;23.296;2022-12-07T14:57:12;94705.75;;;11.21;96.30
15477;BME280;7840;42.702;23.296;2022-12-07T14:59:40;94710.16;;;11.00;99.00
15477;BME280;7840;42.702;23.296;2022-12-07T15:02:12;94707.59;;;9.99;100.00
15477;BME280;7840;42.702;23.296;2022-12-07T15:04:40;94709.91;;;9.63;100.00
15477;BME280;7840;42.702;23.296;2022-12-07T15:07:15;94720.78;;;9.45;100.00
15477;BME280;7840;42.702;23.296;2022-12-07T15:09:46;94716.31;;;9.72;100.00
15477;BME280;7840;42.702;23.296;2022-12-07T15:12:14;94711.75;;;9.95;100.00
15477;BME280;7840;42.702;23.296;2022-12-07T15:14:50;94720.00;;;9.98;100.00
15477;BME280;7840;42.702;23.296;2022-12-07T15:17:20;94717.41;;;10.03;100.00
15477;BME280;7840;42.702;23.296;2022-12-07T15:19:48;94723.50;;;10.04;100.00
15477;BME280;7840;42.702;23.296;2022-12-07T15:22:16;94724.78;;;9.74;100.00
15477;BME280;7840;42.702;23.296;2022-12-07T15:24:49;94723.03;;;9.09;100.00
15477;BME280;7840;42.702;23.296;2022-12-07T15:27:24;94724.63;;;9.10;100.00
15477;BME280;7840;42.702;23.296;2022-12-07T15:29:52;94727.09;;;8.78;100.00
15477;BME280;7840;42.702;23.296;2022-12-07T15:32:23;94726.63;;;9.03;100.00
15477;BME280;7840;42.702;23.296;2022-12-07T15:34:51;94730.50;;;9.17;100.00
15477;BME280;7840;42.702;23.296;2022-12-07T15:37:18;94726.88;;;9.23;100.00
15477;BME280;7840;42.702;23.296;2022-12-07T15:39:46;94725.03;;;9.24;100.00
15477;BME280;7840;42.702;23.296;2022-12-07T15:42:18;94742.19;;;9.21;100.00
15477;BME280;7840;42.702;23.296;2022-12-07T15:44:54;94741.44;;;9.04;100.00
15477;BME280;7840;42.702;23.296;2022-12-07T15:47:34;94731.72;;;8.88;100.00
15477;BME280;7840;42.702;23.296;2022-12-07T15:50:05;94738.09;;;8.53;100.00
15477;BME280;7840;42.702;23.296;2022-12-07T15:52:55;94733.75;;;8.64;100.00
15477;BME280;7840;42.702;23.296;2022-12-07T15:55:22;94735.13;;;8.66;100.00
15477;BME280;7840;42.702;23.296;2022-12-07T15:57:50;94735.88;;;8.45;100.00
15477;BME280;7840;42.702;23.296;2022-12-07T16:00:19;94738.56;;;8.50;100.00
15477;BME280;7840;42.702;23.296;2022-12-07T16:02:53;94736.56;;;8.57;100.00
15477;BME280;7840;42.702;23.296;2022-12-07T16:05:27;94741.69;;;8.64;100.00
15477;BME280;7840;42.702;23.296;2022-12-07T16:07:55;94730.19;;;8.53;100.00
15477;BME280;7840;42.702;23.296;2022-12-07T16:10:23;94733.53;;;8.48;100.00
15477;BME280;7840;42.702;23.296;2022-12-07T16:12:52;94744.44;;;8.52;100.00
15477;BME280;7840;42.702;23.296;2022-12-07T16:15:38;94744.00;;;8.43;100.00
15477;BME280;7840;42.702;23.296;2022-12-07T16:18:20;94747.44;;;8.44;100.00
15477;BME280;7840;42.702;23.296;2022-12-07T16:20:50;94741.78;;;8.35;100.00
15477;BME280;7840;42.702;23.296;2022-12-07T16:23:20;94742.91;;;8.39;100.00
15477;BME280;7840;42.702;23.296;2022-12-07T16:25:50;94748.44;;;8.38;100.00
15477;BME280;7840;42.702;23.296;2022-12-07T16:28:17;94747.56;;;7.87;100.00
15477;BME280;7840;42.702;23.296;2022-12-07T16:30:45;94748.88;;;7.44;100.00
15477;BME280;7840;42.702;23.296;2022-12-07T16:33:12;94751.91;;;7.36;100.00
15477;BME280;7840;42.702;23.296;2022-12-07T16:35:41;94748.13;;;7.60;100.00
15477;BME280;7840;42.702;23.296;2022-12-07T16:38:10;94754.63;;;7.70;100.00
15477;BME280;7840;42.702;23.296;2022-12-07T16:40:37;94757.84;;;7.72;100.00
15477;BME280;7840;42.702;23.296;2022-12-07T16:43:05;94758.88;;;7.71;100.00
15477;BME280;7840;42.702;23.296;2022-12-07T16:45:32;94759.91;;;7.70;100.00
15477;BME280;7840;42.702;23.296;2022-12-07T16:48:00;94762.34;;;7.59;100.00